createdAt,value
2024-01-16T00:01:45.745Z,95605.34
2024-01-16T00:04:12.628Z,95607.58
2024-01-16T00:06:41.220Z,95612.48
2024-01-16T00:09:08.453Z,95618.88
2024-01-16T00:11:40.026Z,95620.54
2024-01-16T00:14:07.264Z,95622.92
2024-01-16T00:16:34.329Z,95626.16
2024-01-16T00:19:02.469Z,95626.50
2024-01-16T00:22:51.533Z,95637.84
2024-01-16T00:25:21.312Z,95640.40
2024-01-16T00:27:48.946Z,95647.39
2024-01-16T00:30:16.521Z,95656.50
2024-01-16T00:32:44.317Z,95656.67
2024-01-16T00:35:12.107Z,95661.92
2024-01-16T00:37:39.791Z,95663.52
2024-01-16T00:40:10.218Z,95672.89
2024-01-16T00:42:37.749Z,95670.84
2024-01-16T00:45:05.798Z,95680.64
2024-01-16T00:47:34.157Z,95684.66
2024-01-16T00:50:02.599Z,95679.89
2024-01-16T00:52:30.236Z,95679.98
2024-01-16T00:54:57.638Z,95687.02
2024-01-16T00:57:24.989Z,95690.53
2024-01-16T00:59:53.220Z,95696.15
2024-01-16T01:02:20.687Z,95695.56
2024-01-16T01:04:49.230Z,95703.41
2024-01-16T01:07:17.004Z,95709.80
2024-01-16T01:09:44.345Z,95711.10
2024-01-16T01:12:11.784Z,95710.52
2024-01-16T01:14:39.388Z,95715.11
2024-01-16T01:17:06.979Z,95713.16
2024-01-16T01:19:34.489Z,95712.17
2024-01-16T01:22:01.950Z,95713.66
2024-01-16T01:24:29.275Z,95713.52
2024-01-16T01:26:56.727Z,95708.71
2024-01-16T01:29:24.191Z,95708.41
2024-01-16T01:31:51.784Z,95704.80
2024-01-16T01:34:19.256Z,95696.85
2024-01-16T01:36:46.723Z,95704.40
2024-01-16T01:39:14.165Z,95710.71
2024-01-16T01:41:42.626Z,95714.09
2024-01-16T01:44:17.389Z,95705.39
2024-01-16T01:46:45.733Z,95714.16
2024-01-16T01:49:14.977Z,95713.11
2024-01-16T01:51:42.350Z,95714.23
2024-01-16T01:54:10.561Z,95719.50
2024-01-16T01:56:38.150Z,95721.25
2024-01-16T01:59:05.720Z,95720.03
2024-01-16T02:01:34.056Z,95726.17
2024-01-16T02:04:01.716Z,95735.88
2024-01-16T02:06:29.504Z,95732.73
2024-01-16T02:08:57.261Z,95733.79
2024-01-16T02:11:25.705Z,95732.80
2024-01-16T02:13:53.355Z,95740.52
2024-01-16T02:16:25.243Z,95739.77
2024-01-16T02:18:53.284Z,95744.15
2024-01-16T02:21:23.923Z,95740.48
2024-01-16T02:23:51.690Z,95748.42
2024-01-16T02:26:19.341Z,95749.76
2024-01-16T02:28:47.086Z,95748.68
2024-01-16T02:31:14.705Z,95744.08
2024-01-16T02:33:42.234Z,95750.27
2024-01-16T02:36:09.920Z,95744.42
2024-01-16T02:38:37.421Z,95750.50
2024-01-16T02:41:05.130Z,95750.71
2024-01-16T02:43:32.657Z,95749.67
2024-01-16T02:46:00.163Z,95748.73
2024-01-16T02:48:27.765Z,95751.17
2024-01-16T02:50:55.327Z,95761.56
2024-01-16T02:53:22.821Z,95762.14
2024-01-16T02:55:50.224Z,95759.86
2024-01-16T02:58:17.694Z,95766.64
2024-01-16T03:00:45.062Z,95767.20
2024-01-16T03:03:12.508Z,95764.09
2024-01-16T03:05:40.299Z,95767.85
2024-01-16T03:08:08.188Z,95767.02
2024-01-16T03:10:35.625Z,95772.61
2024-01-16T03:13:03.887Z,95767.85
2024-01-16T03:15:32.375Z,95769.38
2024-01-16T03:18:01.476Z,95765.97
2024-01-16T03:20:29.707Z,95769.73
2024-01-16T03:22:57.487Z,95776.23
2024-01-16T03:25:25.243Z,95778.61
2024-01-16T03:27:52.734Z,95781.39
2024-01-16T03:30:20.260Z,95781.73
2024-01-16T03:32:47.754Z,95786.44
2024-01-16T03:35:15.229Z,95797.27
2024-01-16T03:37:42.837Z,95798.48
2024-01-16T03:40:12.556Z,95794.05
2024-01-16T03:42:39.913Z,95798.63
2024-01-16T03:45:08.219Z,95800.69
2024-01-16T03:47:35.720Z,95804.11
2024-01-16T03:50:03.300Z,95804.89
2024-01-16T03:52:30.858Z,95809.56
2024-01-16T03:54:58.187Z,95813.15
2024-01-16T03:57:26.223Z,95824.14
2024-01-16T03:59:53.603Z,95816.60
2024-01-16T04:02:21.310Z,95826.52
2024-01-16T04:04:48.869Z,95828.85
2024-01-16T04:07:16.322Z,95827.84
2024-01-16T04:09:44.487Z,95827.69
2024-01-16T04:12:12.506Z,95824.88
2024-01-16T04:14:40.039Z,95828.92
2024-01-16T04:17:08.076Z,95834.23
2024-01-16T04:19:35.777Z,95835.60
2024-01-16T04:22:03.417Z,95842.13
2024-01-16T04:24:30.869Z,95836.28
2024-01-16T04:26:58.451Z,95841.59
2024-01-16T04:29:25.905Z,95850.06
2024-01-16T04:31:53.389Z,95850.98
2024-01-16T04:34:20.976Z,95851.23
2024-01-16T04:36:49.076Z,95855.52
2024-01-16T04:39:16.418Z,95854.06
2024-01-16T04:41:43.873Z,95859.45
2024-01-16T04:44:11.631Z,95851.80
2024-01-16T04:46:39.468Z,95851.27
2024-01-16T04:49:06.865Z,95855.89
2024-01-16T04:51:34.474Z,95857.80
2024-01-16T04:54:01.932Z,95860.34
2024-01-16T04:56:29.634Z,95861.02
2024-01-16T04:58:57.021Z,95862.64
2024-01-16T05:01:24.476Z,95867.84
2024-01-16T05:03:52.070Z,95870.10
2024-01-16T05:06:19.662Z,95875.14
2024-01-16T05:08:47.102Z,95877.23
2024-01-16T05:11:14.512Z,95880.76
2024-01-16T05:13:41.869Z,95882.02
2024-01-16T05:16:09.340Z,95879.55
2024-01-16T05:18:37.176Z,95884.72
2024-01-16T05:21:05.955Z,95891.83
2024-01-16T05:23:33.693Z,95895.92
2024-01-16T05:26:01.112Z,95898.39
2024-01-16T05:28:29.101Z,95895.00
2024-01-16T05:30:56.654Z,95897.19
2024-01-16T05:33:24.478Z,95901.64
2024-01-16T05:35:52.131Z,95907.32
2024-01-16T05:38:19.741Z,95905.08
2024-01-16T05:40:47.130Z,95910.69
2024-01-16T05:43:15.861Z,95910.80
2024-01-16T05:45:43.406Z,95915.52
2024-01-16T05:48:12.014Z,95922.07
2024-01-16T05:50:39.831Z,95929.08
2024-01-16T05:53:07.450Z,95933.48
2024-01-16T05:55:37.049Z,95939.73
2024-01-16T05:58:04.413Z,95942.31
2024-01-16T06:00:32.159Z,95943.63
2024-01-16T06:03:00.986Z,95947.13
2024-01-16T06:05:28.373Z,95949.88
2024-01-16T06:07:55.716Z,95950.48
2024-01-16T06:10:23.496Z,95954.84
2024-01-16T06:12:50.946Z,95959.89
2024-01-16T06:15:18.602Z,95965.33
2024-01-16T06:17:46.623Z,95968.88
2024-01-16T06:20:14.404Z,95964.77
2024-01-16T06:22:42.042Z,95975.13
2024-01-16T06:25:09.620Z,95980.05
2024-01-16T06:27:37.211Z,95974.95
2024-01-16T06:30:06.906Z,95974.43
2024-01-16T06:32:34.623Z,95983.69
2024-01-16T06:35:02.352Z,95987.02
2024-01-16T06:37:30.033Z,95988.38
2024-01-16T06:39:57.450Z,95993.36
2024-01-16T06:42:26.405Z,95988.80
2024-01-16T06:44:54.181Z,95988.90
2024-01-16T06:47:22.223Z,95995.37
2024-01-16T06:49:49.852Z,96000.89
2024-01-16T06:52:17.536Z,96003.80
2024-01-16T06:54:45.268Z,96011.05
2024-01-16T06:57:12.816Z,96015.36
2024-01-16T06:59:40.865Z,96017.63
2024-01-16T07:02:09.644Z,96024.63
2024-01-16T07:04:37.360Z,96024.70
2024-01-16T07:07:04.924Z,96027.02
2024-01-16T07:09:32.688Z,96040.89
2024-01-16T07:12:00.278Z,96037.17
2024-01-16T07:14:27.821Z,96041.40
2024-01-16T07:16:55.342Z,96046.79
2024-01-16T07:19:23.028Z,96050.70
2024-01-16T07:21:50.661Z,96052.27
2024-01-16T07:24:18.722Z,96048.14
2024-01-16T07:26:46.348Z,96049.60
2024-01-16T07:29:14.697Z,96048.77
2024-01-16T07:31:42.765Z,96051.41
2024-01-16T07:34:10.354Z,96057.63
2024-01-16T07:36:37.902Z,96054.19
2024-01-16T07:39:05.520Z,96058.27
2024-01-16T07:41:33.007Z,96059.00
2024-01-16T07:44:00.565Z,96064.36
2024-01-16T07:46:28.137Z,96065.11
2024-01-16T07:48:55.984Z,96071.82
2024-01-16T07:51:23.650Z,96075.23
2024-01-16T07:53:59.566Z,96072.83
2024-01-16T07:56:26.986Z,96077.59
2024-01-16T07:58:54.874Z,96082.90
2024-01-16T08:01:22.490Z,96075.98
2024-01-16T08:03:49.879Z,96077.46
2024-01-16T08:06:17.449Z,96084.50
2024-01-16T08:08:45.167Z,96093.23
2024-01-16T08:11:12.683Z,96098.84
2024-01-16T08:13:40.055Z,96096.73
2024-01-16T08:16:10.873Z,96102.65
2024-01-16T08:18:39.969Z,96112.65
2024-01-16T08:21:09.024Z,96115.77
2024-01-16T08:23:36.950Z,96106.55
2024-01-16T08:26:04.434Z,96111.00
2024-01-16T08:28:32.328Z,96117.02
2024-01-16T08:31:00.318Z,96118.68
2024-01-16T08:33:34.171Z,96120.59
2024-01-16T08:36:07.816Z,96128.58
2024-01-16T08:38:35.481Z,96125.55
2024-01-16T08:41:04.566Z,96127.73
2024-01-16T08:43:32.035Z,96127.80
2024-01-16T08:45:59.592Z,96130.58
2024-01-16T08:48:27.191Z,96136.98
2024-01-16T08:50:58.313Z,96142.23
2024-01-16T08:53:25.803Z,96139.40
2024-01-16T08:55:53.270Z,96144.95
2024-01-16T08:58:20.826Z,96139.53
2024-01-16T09:00:48.708Z,96140.39
2024-01-16T09:03:16.389Z,96146.39
2024-01-16T09:05:44.798Z,96147.90
2024-01-16T09:08:13.965Z,96154.75
2024-01-16T09:10:41.838Z,96148.34
2024-01-16T09:13:09.401Z,96155.03
2024-01-16T09:15:37.164Z,96159.15
2024-01-16T09:18:04.926Z,96162.27
2024-01-16T09:20:32.963Z,96173.45
2024-01-16T09:23:00.508Z,96172.34
2024-01-16T09:25:30.348Z,96176.07
2024-01-16T09:27:57.822Z,96179.95
2024-01-16T09:30:25.314Z,96179.70
2024-01-16T09:32:53.135Z,96184.06
2024-01-16T09:35:21.137Z,96180.28
2024-01-16T09:37:49.060Z,96178.83
2024-01-16T09:40:16.543Z,96183.91
2024-01-16T09:42:44.503Z,96187.59
2024-01-16T09:45:12.047Z,96191.61
2024-01-16T09:47:40.467Z,96194.14
2024-01-16T09:50:08.567Z,96197.73
2024-01-16T09:52:36.074Z,96203.54
2024-01-16T09:55:03.747Z,96206.52
2024-01-16T09:57:31.489Z,96205.17
2024-01-16T09:59:59.280Z,96207.38
2024-01-16T10:02:26.749Z,96208.71
2024-01-16T10:04:54.258Z,96212.70
2024-01-16T10:07:26.957Z,96210.06
2024-01-16T10:09:58.188Z,96210.39
2024-01-16T10:12:26.255Z,96208.31
2024-01-16T10:14:53.846Z,96210.88
2024-01-16T10:17:21.473Z,96205.35
2024-01-16T10:19:50.934Z,96210.86
2024-01-16T10:22:25.601Z,96211.77
2024-01-16T10:25:05.961Z,96221.02
2024-01-16T10:27:34.371Z,96221.80
2024-01-16T10:30:02.274Z,96223.67
2024-01-16T10:32:33.763Z,96223.53
2024-01-16T10:35:13.081Z,96223.34
2024-01-16T10:37:51.160Z,96226.33
2024-01-16T10:40:22.524Z,96229.19
2024-01-16T10:43:02.657Z,96234.17
2024-01-16T10:45:30.517Z,96234.46
2024-01-16T10:48:05.735Z,96253.43
2024-01-16T10:50:34.638Z,96261.98
2024-01-16T10:53:05.351Z,96265.66
2024-01-16T10:55:32.975Z,96266.88
2024-01-16T10:58:01.882Z,96270.91
2024-01-16T11:00:30.214Z,96272.61
2024-01-16T11:03:05.965Z,96269.11
2024-01-16T11:05:34.929Z,96278.33
2024-01-16T11:08:02.602Z,96291.19
2024-01-16T11:10:30.057Z,96299.03
2024-01-16T11:12:57.541Z,96307.89
2024-01-16T11:15:26.603Z,96307.55
2024-01-16T11:17:54.331Z,96312.85
2024-01-16T11:23:00.849Z,96315.83
2024-01-16T11:25:37.647Z,96306.15
2024-01-16T11:28:13.169Z,96304.80
2024-01-16T11:30:40.845Z,96305.64
2024-01-16T11:33:17.054Z,96311.86
2024-01-16T11:35:44.893Z,96323.41
2024-01-16T11:38:17.769Z,96324.90
2024-01-16T11:40:45.415Z,96321.77
2024-01-16T11:43:41.140Z,96328.12
2024-01-16T11:46:08.956Z,96330.86
2024-01-16T11:48:37.132Z,96338.65
2024-01-16T11:51:24.607Z,96340.85
2024-01-16T11:53:52.794Z,96342.85
2024-01-16T11:56:30.835Z,96344.95
2024-01-16T11:59:20.985Z,96353.10
2024-01-16T12:01:48.524Z,96356.14
2024-01-16T12:04:19.459Z,96358.77
2024-01-16T12:06:48.287Z,96357.46
2024-01-16T12:09:16.734Z,96362.75
2024-01-16T12:11:46.685Z,96361.90
2024-01-16T12:14:14.221Z,96370.20
2024-01-16T12:16:41.559Z,96375.02
2024-01-16T12:19:09.761Z,96372.80
2024-01-16T12:21:40.929Z,96377.98
2024-01-16T12:24:11.270Z,96378.15
2024-01-16T12:26:42.606Z,96379.84
2024-01-16T12:29:10.798Z,96385.48
2024-01-16T12:31:40.032Z,96387.85
2024-01-16T12:34:11.691Z,96398.55
2024-01-16T12:36:39.701Z,96397.13
2024-01-16T12:40:02.334Z,96402.60
2024-01-16T12:42:29.737Z,96412.14
2024-01-16T12:44:57.295Z,96405.08
2024-01-16T12:47:24.958Z,96408.48
2024-01-16T12:49:52.394Z,96413.23
2024-01-16T12:52:23.977Z,96428.11
2024-01-16T12:55:05.874Z,96424.11
2024-01-16T12:57:33.439Z,96423.55
2024-01-16T13:00:03.536Z,96428.56
2024-01-16T13:02:32.320Z,96435.28
2024-01-16T13:05:00.802Z,96433.00
2024-01-16T13:07:28.942Z,96441.25
2024-01-16T13:10:13.537Z,96446.05
2024-01-16T13:12:42.357Z,96448.86
2024-01-16T13:15:12.709Z,96450.44
2024-01-16T13:17:40.378Z,96459.60
2024-01-16T13:20:11.603Z,96457.27
2024-01-16T13:22:44.933Z,96462.90
2024-01-16T13:25:15.437Z,96471.23
2024-01-16T13:27:42.776Z,96476.01
2024-01-16T13:30:12.085Z,96473.74
2024-01-16T13:32:39.636Z,96479.06
2024-01-16T13:35:10.884Z,96479.51
2024-01-16T13:37:39.224Z,96482.58
2024-01-16T13:40:17.155Z,96483.46
2024-01-16T13:42:44.833Z,96483.33
2024-01-16T13:45:14.931Z,96481.33
2024-01-16T13:47:42.839Z,96489.98
2024-01-16T13:50:11.101Z,96497.25
2024-01-16T13:52:38.851Z,96503.92
2024-01-16T13:55:07.135Z,96507.77
2024-01-16T13:57:36.442Z,96513.30
2024-01-16T14:00:08.530Z,96517.10
2024-01-16T14:02:49.036Z,96522.02
2024-01-16T14:05:19.322Z,96524.33
2024-01-16T14:07:52.067Z,96531.35
2024-01-16T14:10:20.508Z,96520.67
2024-01-16T14:12:50.513Z,96521.04
2024-01-16T14:15:25.352Z,96527.85
2024-01-16T14:17:55.585Z,96526.58
2024-01-16T14:20:27.748Z,96527.23
2024-01-16T14:23:00.166Z,96526.40
2024-01-16T14:25:27.741Z,96530.73
2024-01-16T14:28:05.427Z,96532.98
2024-01-16T14:30:34.031Z,96538.09
2024-01-16T14:33:02.765Z,96539.20
2024-01-16T14:35:30.395Z,96543.89
2024-01-16T14:37:58.095Z,96541.39
2024-01-16T14:40:29.963Z,96553.77
2024-01-16T14:43:00.627Z,96555.00
2024-01-16T14:45:28.538Z,96561.38
2024-01-16T14:47:56.126Z,96562.97
2024-01-16T14:50:25.533Z,96568.61
2024-01-16T14:52:53.875Z,96575.49
2024-01-16T14:55:21.942Z,96580.79
2024-01-16T14:57:54.331Z,96585.58
2024-01-16T15:00:24.419Z,96586.52
2024-01-16T15:02:52.476Z,96589.15
2024-01-16T15:05:21.113Z,96585.86
2024-01-16T15:07:49.260Z,96587.86
2024-01-16T15:10:18.145Z,96582.91
2024-01-16T15:12:46.420Z,96583.70
2024-01-16T15:15:15.004Z,96584.38
2024-01-16T15:17:43.278Z,96583.83
2024-01-16T15:20:11.429Z,96583.85
2024-01-16T15:22:46.516Z,96587.67
2024-01-16T15:25:16.947Z,96590.59
2024-01-16T15:27:45.729Z,96587.61
2024-01-16T15:30:15.224Z,96587.60
2024-01-16T15:32:43.051Z,96595.06
2024-01-16T15:35:12.560Z,96598.91
2024-01-16T15:37:40.414Z,96607.77
2024-01-16T15:40:12.957Z,96612.97
2024-01-16T15:42:40.542Z,96611.77
2024-01-16T15:45:08.790Z,96617.34
2024-01-16T15:47:36.748Z,96622.14
2024-01-16T15:50:08.139Z,96624.03
2024-01-16T15:52:35.653Z,96633.88
2024-01-16T15:55:03.206Z,96649.80
2024-01-16T15:57:30.688Z,96653.58
2024-01-16T15:59:58.225Z,96655.65
2024-01-16T16:02:25.916Z,96653.61
2024-01-16T16:04:55.451Z,96653.61
2024-01-16T16:07:25.636Z,96655.30
2024-01-16T16:09:55.455Z,96654.34
2024-01-16T16:12:22.780Z,96656.76
2024-01-16T16:14:50.322Z,96658.54
2024-01-16T16:17:18.041Z,96663.63
2024-01-16T16:19:46.897Z,96666.02
2024-01-16T16:22:15.357Z,96668.35
2024-01-16T16:24:43.073Z,96673.48
2024-01-16T16:27:24.638Z,96678.44
2024-01-16T16:29:54.562Z,96685.20
2024-01-16T16:32:22.379Z,96684.67
2024-01-16T16:34:50.479Z,96686.79
2024-01-16T16:37:19.209Z,96690.55
2024-01-16T16:39:46.965Z,96689.20
2024-01-16T16:42:15.334Z,96688.00
2024-01-16T16:44:43.824Z,96691.17
2024-01-16T16:47:12.459Z,96698.84
2024-01-16T16:49:39.864Z,96700.56
2024-01-16T16:52:07.493Z,96702.48
2024-01-16T16:54:35.105Z,96702.41
2024-01-16T16:57:02.688Z,96707.73
2024-01-16T16:59:30.200Z,96710.02
2024-01-16T17:01:58.070Z,96710.46
2024-01-16T17:04:25.974Z,96711.39
2024-01-16T17:06:55.982Z,96711.79
2024-01-16T17:09:23.581Z,96719.39
2024-01-16T17:11:51.114Z,96720.86
2024-01-16T17:14:18.781Z,96720.52
2024-01-16T17:16:46.368Z,96719.84
2024-01-16T17:19:13.744Z,96718.09
2024-01-16T17:21:43.386Z,96719.12
2024-01-16T17:24:11.000Z,96722.58
2024-01-16T17:26:40.884Z,96722.48
2024-01-16T17:29:08.701Z,96733.13
2024-01-16T17:31:36.226Z,96736.77
2024-01-16T17:34:04.226Z,96743.05
2024-01-16T17:36:33.064Z,96751.10
2024-01-16T17:39:01.694Z,96755.65
2024-01-16T17:41:31.274Z,96757.10
2024-01-16T17:43:59.454Z,96756.58
2024-01-16T17:46:26.818Z,96757.09
2024-01-16T17:48:55.758Z,96754.10
2024-01-16T17:51:25.423Z,96756.94
2024-01-16T17:53:54.374Z,96759.34
2024-01-16T17:56:24.451Z,96763.09
2024-01-16T17:58:53.638Z,96766.00
2024-01-16T18:01:20.998Z,96767.16
2024-01-16T18:03:49.049Z,96770.00
2024-01-16T18:06:18.418Z,96772.71
2024-01-16T18:08:48.409Z,96779.95
2024-01-16T18:11:15.906Z,96782.05
2024-01-16T18:13:44.031Z,96781.94
2024-01-16T18:16:12.901Z,96791.16
2024-01-16T18:18:42.227Z,96794.83
2024-01-16T18:21:13.646Z,96799.89
2024-01-16T18:23:42.143Z,96799.42
2024-01-16T18:26:12.482Z,96804.39
2024-01-16T18:28:41.577Z,96808.64
2024-01-16T18:31:10.512Z,96807.55
2024-01-16T18:33:40.124Z,96816.23
2024-01-16T18:36:07.919Z,96817.19
2024-01-16T18:38:35.600Z,96823.10
2024-01-16T18:41:05.430Z,96821.17
2024-01-16T18:43:33.386Z,96822.53
2024-01-16T18:46:01.020Z,96826.54
2024-01-16T18:48:30.329Z,96828.11
2024-01-16T18:50:58.097Z,96828.50
2024-01-16T18:53:26.658Z,96834.41
2024-01-16T18:55:54.511Z,96834.09
2024-01-16T18:58:24.886Z,96835.05
2024-01-16T19:00:57.887Z,96840.52
2024-01-16T19:03:26.118Z,96843.66
2024-01-16T19:05:59.818Z,96845.27
2024-01-16T19:08:27.649Z,96851.69
2024-01-16T19:10:55.112Z,96848.95
2024-01-16T19:13:25.415Z,96857.48
2024-01-16T19:15:53.537Z,96853.41
2024-01-16T19:18:21.538Z,96862.17
2024-01-16T19:20:49.379Z,96862.49
2024-01-16T19:23:17.945Z,96864.27
2024-01-16T19:25:47.180Z,96866.98
2024-01-16T19:28:14.654Z,96866.81
2024-01-16T19:30:42.249Z,96875.31
2024-01-16T19:33:09.934Z,96875.11
2024-01-16T19:35:38.012Z,96878.50
2024-01-16T19:38:05.885Z,96884.63
2024-01-16T19:40:33.871Z,96886.23
2024-01-16T19:43:06.159Z,96885.02
2024-01-16T19:45:34.202Z,96883.76
2024-01-16T19:48:02.041Z,96880.98
2024-01-16T19:50:30.206Z,96885.65
2024-01-16T19:52:58.222Z,96889.84
2024-01-16T19:55:25.895Z,96887.74
2024-01-16T19:58:00.012Z,96892.17
2024-01-16T20:00:27.749Z,96899.86
2024-01-16T20:02:55.981Z,96899.02
2024-01-16T20:05:23.740Z,96900.27
2024-01-16T20:07:51.232Z,96905.27
2024-01-16T20:10:18.801Z,96907.52
2024-01-16T20:12:48.060Z,96916.27
2024-01-16T20:15:17.350Z,96913.59
2024-01-16T20:17:45.325Z,96919.45
2024-01-16T20:20:14.643Z,96924.50
2024-01-16T20:22:46.266Z,96930.48
2024-01-16T20:25:20.523Z,96938.30
2024-01-16T20:27:49.122Z,96943.30
2024-01-16T20:30:17.591Z,96944.52
2024-01-16T20:32:46.806Z,96947.66
2024-01-16T20:35:14.850Z,96947.74
2024-01-16T20:37:42.654Z,96948.54
2024-01-16T20:40:10.829Z,96954.20
2024-01-16T20:42:38.821Z,96952.17
2024-01-16T20:45:07.032Z,96954.71
2024-01-16T20:47:34.935Z,96954.68
2024-01-16T20:50:02.728Z,96956.64
2024-01-16T20:52:30.107Z,96956.46
2024-01-16T20:54:57.509Z,96958.08
2024-01-16T20:57:25.392Z,96954.48
2024-01-16T20:59:52.925Z,96963.27
2024-01-16T21:02:20.556Z,96972.48
2024-01-16T21:04:48.155Z,96979.81
2024-01-16T21:07:15.964Z,96987.33
2024-01-16T21:09:43.655Z,96988.41
2024-01-16T21:12:11.402Z,96994.99
2024-01-16T21:14:38.935Z,96993.42
2024-01-16T21:17:08.808Z,96991.75
2024-01-16T21:19:36.692Z,96996.29
2024-01-16T21:22:06.918Z,96998.34
2024-01-16T21:24:34.931Z,96998.83
2024-01-16T21:27:02.605Z,96997.96
2024-01-16T21:29:30.010Z,97001.02
2024-01-16T21:31:59.018Z,96998.52
2024-01-16T21:34:28.056Z,96999.75
2024-01-16T21:36:56.335Z,97001.63
2024-01-16T21:39:23.887Z,97008.52
2024-01-16T21:41:52.345Z,97011.54
2024-01-16T21:44:20.152Z,97017.00
2024-01-16T21:46:47.635Z,97019.65
2024-01-16T21:49:16.560Z,97023.11
2024-01-16T21:51:45.709Z,97028.14
2024-01-16T21:54:13.432Z,97027.57
2024-01-16T21:56:41.151Z,97030.16
2024-01-16T21:59:08.886Z,97028.35
2024-01-16T22:01:37.626Z,97029.52
2024-01-16T22:04:05.956Z,97035.11
2024-01-16T22:06:33.486Z,97036.81
2024-01-16T22:09:01.276Z,97035.48
2024-01-16T22:11:29.041Z,97034.98
2024-01-16T22:13:56.463Z,97032.99
2024-01-16T22:16:24.825Z,97031.27
2024-01-16T22:18:54.315Z,97027.46
2024-01-16T22:21:23.309Z,97029.17
2024-01-16T22:23:50.875Z,97026.93
2024-01-16T22:26:18.487Z,97026.94
2024-01-16T22:28:46.082Z,97029.07
2024-01-16T22:31:13.807Z,97026.25
2024-01-16T22:33:42.252Z,97025.17
2024-01-16T22:36:10.673Z,97028.30
2024-01-16T22:38:38.469Z,97027.61
2024-01-16T22:41:05.927Z,97032.73
2024-01-16T22:43:34.132Z,97031.46
2024-01-16T22:46:01.877Z,97027.48
2024-01-16T22:48:30.832Z,97027.50
2024-01-16T22:50:58.673Z,97025.17
2024-01-16T22:53:26.548Z,97026.24
2024-01-16T22:55:54.389Z,97031.42
2024-01-16T22:58:21.927Z,97033.20
2024-01-16T23:00:54.825Z,97030.76
2024-01-16T23:03:22.430Z,97030.08
2024-01-16T23:05:50.207Z,97028.76
2024-01-16T23:08:20.025Z,97023.49
2024-01-16T23:10:48.003Z,97015.77
2024-01-16T23:13:15.436Z,97008.86
2024-01-16T23:15:42.930Z,97004.85
2024-01-16T23:18:10.714Z,97004.27
2024-01-16T23:20:38.373Z,97004.57
2024-01-16T23:23:08.100Z,97002.14
2024-01-16T23:25:36.628Z,97005.45
2024-01-16T23:28:04.761Z,97009.05
2024-01-16T23:30:32.114Z,97014.23
2024-01-16T23:32:59.716Z,97021.25
2024-01-16T23:35:27.128Z,97026.84
2024-01-16T23:37:57.000Z,97034.56
2024-01-16T23:40:24.526Z,97034.62
2024-01-16T23:42:51.837Z,97036.63
2024-01-16T23:45:24.543Z,97033.38
2024-01-16T23:47:58.314Z,97035.23
2024-01-16T23:50:26.917Z,97040.63
2024-01-16T23:52:54.724Z,97044.40
2024-01-16T23:55:22.822Z,97052.23
2024-01-16T23:57:50.483Z,97050.08
